sensor_id;sensor_type;location;lat;lon;timestamp;P1;durP1;ratioP1;P2;durP2;ratioP2
72569;SDS011;60594;50.204;8.844;2023-04-06T00:00:07;8.63;;;4.55;;
72569;SDS011;60594;50.204;8.844;2023-04-06T00:02:55;8.27;;;4.75;;
72569;SDS011;60594;50.204;8.844;2023-04-06T00:05:22;7.53;;;4.80;;
72569;SDS011;60594;50.204;8.844;2023-04-06T00:07:49;6.85;;;5.00;;
72569;SDS011;60594;50.204;8.844;2023-04-06T00:10:16;7.47;;;4.68;;
72569;SDS011;60594;50.204;8.844;2023-04-06T00:12:43;6.97;;;4.88;;
72569;SDS011;60594;50.204;8.844;2023-04-06T00:15:09;8.55;;;4.80;;
72569;SDS011;60594;50.204;8.844;2023-04-06T00:17:36;8.23;;;4.80;;
72569;SDS011;60594;50.204;8.844;2023-04-06T00:20:03;9.77;;;4.35;;
72569;SDS011;60594;50.204;8.844;2023-04-06T00:22:30;7.35;;;4.78;;
72569;SDS011;60594;50.204;8.844;2023-04-06T00:24:56;8.43;;;5.22;;
72569;SDS011;60594;50.204;8.844;2023-04-06T00:27:23;8.00;;;4.78;;
72569;SDS011;60594;50.204;8.844;2023-04-06T00:29:49;7.60;;;4.68;;
72569;SDS011;60594;50.204;8.844;2023-04-06T00:32:16;7.65;;;4.95;;
72569;SDS011;60594;50.204;8.844;2023-04-06T00:34:42;9.63;;;5.13;;
72569;SDS011;60594;50.204;8.844;2023-04-06T00:37:10;8.43;;;4.53;;
72569;SDS011;60594;50.204;8.844;2023-04-06T00:39:37;6.65;;;4.63;;
72569;SDS011;60594;50.204;8.844;2023-04-06T00:42:07;10.55;;;5.72;;
72569;SDS011;60594;50.204;8.844;2023-04-06T00:44:40;7.45;;;4.90;;
72569;SDS011;60594;50.204;8.844;2023-04-06T00:47:07;8.57;;;5.20;;
72569;SDS011;60594;50.204;8.844;2023-04-06T00:49:34;7.85;;;4.78;;
72569;SDS011;60594;50.204;8.844;2023-04-06T00:52:01;7.20;;;5.25;;
72569;SDS011;60594;50.204;8.844;2023-04-06T00:54:28;8.20;;;4.55;;
72569;SDS011;60594;50.204;8.844;2023-04-06T00:56:57;8.35;;;5.18;;
72569;SDS011;60594;50.204;8.844;2023-04-06T00:59:25;7.55;;;5.47;;
72569;SDS011;60594;50.204;8.844;2023-04-06T01:01:54;9.15;;;5.25;;
72569;SDS011;60594;50.204;8.844;2023-04-06T01:04:33;8.18;;;4.70;;
72569;SDS011;60594;50.204;8.844;2023-04-06T01:07:01;12.32;;;4.95;;
72569;SDS011;60594;50.204;8.844;2023-04-06T01:09:35;7.65;;;4.75;;
72569;SDS011;60594;50.204;8.844;2023-04-06T01:12:06;7.03;;;5.00;;
72569;SDS011;60594;50.204;8.844;2023-04-06T01:14:34;8.43;;;5.50;;
72569;SDS011;60594;50.204;8.844;2023-04-06T01:17:01;6.70;;;4.80;;
72569;SDS011;60594;50.204;8.844;2023-04-06T01:19:30;8.82;;;5.10;;
72569;SDS011;60594;50.204;8.844;2023-04-06T01:21:57;7.72;;;4.53;;
72569;SDS011;60594;50.204;8.844;2023-04-06T01:24:30;7.05;;;4.25;;
72569;SDS011;60594;50.204;8.844;2023-04-06T01:27:12;8.73;;;5.10;;
72569;SDS011;60594;50.204;8.844;2023-04-06T01:29:59;8.68;;;5.15;;
72569;SDS011;60594;50.204;8.844;2023-04-06T01:32:51;7.30;;;4.30;;
72569;SDS011;60594;50.204;8.844;2023-04-06T01:35:26;7.93;;;4.47;;
72569;SDS011;60594;50.204;8.844;2023-04-06T01:38:02;7.53;;;4.63;;
72569;SDS011;60594;50.204;8.844;2023-04-06T01:40:32;9.30;;;5.18;;
72569;SDS011;60594;50.204;8.844;2023-04-06T01:42:59;6.25;;;4.30;;
72569;SDS011;60594;50.204;8.844;2023-04-06T01:45:32;7.55;;;4.60;;
72569;SDS011;60594;50.204;8.844;2023-04-06T01:48:07;7.05;;;4.70;;
72569;SDS011;60594;50.204;8.844;2023-04-06T01:50:34;6.82;;;3.92;;
72569;SDS011;60594;50.204;8.844;2023-04-06T01:53:01;8.13;;;4.72;;
72569;SDS011;60594;50.204;8.844;2023-04-06T01:55:29;6.32;;;4.20;;
72569;SDS011;60594;50.204;8.844;2023-04-06T01:58:28;7.03;;;4.00;;
72569;SDS011;60594;50.204;8.844;2023-04-06T02:00:54;6.63;;;4.45;;
72569;SDS011;60594;50.204;8.844;2023-04-06T02:03:21;7.45;;;4.75;;
72569;SDS011;60594;50.204;8.844;2023-04-06T02:05:51;8.68;;;4.70;;
72569;SDS011;60594;50.204;8.844;2023-04-06T02:08:25;8.68;;;5.07;;
72569;SDS011;60594;50.204;8.844;2023-04-06T02:10:51;7.10;;;4.88;;
72569;SDS011;60594;50.204;8.844;2023-04-06T02:13:27;6.43;;;4.57;;
72569;SDS011;60594;50.204;8.844;2023-04-06T02:15:55;6.75;;;4.35;;
72569;SDS011;60594;50.204;8.844;2023-04-06T02:18:22;6.95;;;4.00;;
72569;SDS011;60594;50.204;8.844;2023-04-06T02:20:48;8.68;;;4.80;;
72569;SDS011;60594;50.204;8.844;2023-04-06T02:23:15;6.68;;;4.95;;
72569;SDS011;60594;50.204;8.844;2023-04-06T02:25:41;7.50;;;4.78;;
72569;SDS011;60594;50.204;8.844;2023-04-06T02:28:08;7.15;;;4.68;;
72569;SDS011;60594;50.204;8.844;2023-04-06T02:30:35;8.48;;;4.55;;
72569;SDS011;60594;50.204;8.844;2023-04-06T02:33:02;7.43;;;4.30;;
72569;SDS011;60594;50.204;8.844;2023-04-06T02:35:33;7.45;;;4.40;;
72569;SDS011;60594;50.204;8.844;2023-04-06T02:38:00;8.05;;;5.05;;
72569;SDS011;60594;50.204;8.844;2023-04-06T02:40:26;7.28;;;4.75;;
72569;SDS011;60594;50.204;8.844;2023-04-06T02:42:53;7.60;;;4.40;;
72569;SDS011;60594;50.204;8.844;2023-04-06T02:45:27;7.07;;;4.97;;
72569;SDS011;60594;50.204;8.844;2023-04-06T02:47:54;8.63;;;4.68;;
72569;SDS011;60594;50.204;8.844;2023-04-06T02:50:21;9.75;;;4.50;;
72569;SDS011;60594;50.204;8.844;2023-04-06T02:52:55;8.48;;;5.75;;
72569;SDS011;60594;50.204;8.844;2023-04-06T02:55:22;7.25;;;4.53;;
72569;SDS011;60594;50.204;8.844;2023-04-06T02:57:49;6.70;;;5.03;;
72569;SDS011;60594;50.204;8.844;2023-04-06T03:00:17;6.80;;;3.95;;
72569;SDS011;60594;50.204;8.844;2023-04-06T03:02:44;7.95;;;5.13;;
72569;SDS011;60594;50.204;8.844;2023-04-06T03:05:14;8.82;;;5.00;;
72569;SDS011;60594;50.204;8.844;2023-04-06T03:10:16;6.90;;;4.35;;
72569;SDS011;60594;50.204;8.844;2023-04-06T03:12:45;7.85;;;4.75;;
72569;SDS011;60594;50.204;8.844;2023-04-06T03:15:16;7.82;;;5.03;;
72569;SDS011;60594;50.204;8.844;2023-04-06T03:17:48;10.43;;;5.32;;
72569;SDS011;60594;50.204;8.844;2023-04-06T03:20:35;6.82;;;4.60;;
72569;SDS011;60594;50.204;8.844;2023-04-06T03:23:01;8.32;;;5.63;;
72569;SDS011;60594;50.204;8.844;2023-04-06T03:25:31;8.68;;;4.28;;
72569;SDS011;60594;50.204;8.844;2023-04-06T03:28:02;8.13;;;4.70;;
72569;SDS011;60594;50.204;8.844;2023-04-06T03:30:30;8.02;;;5.22;;
72569;SDS011;60594;50.204;8.844;2023-04-06T03:32:57;8.18;;;4.57;;
72569;SDS011;60594;50.204;8.844;2023-04-06T03:35:27;8.57;;;4.43;;
72569;SDS011;60594;50.204;8.844;2023-04-06T03:37:53;7.22;;;4.47;;
72569;SDS011;60594;50.204;8.844;2023-04-06T03:40:20;7.10;;;4.15;;
72569;SDS011;60594;50.204;8.844;2023-04-06T03:42:47;7.47;;;4.57;;
72569;SDS011;60594;50.204;8.844;2023-04-06T03:45:15;7.78;;;4.90;;
72569;SDS011;60594;50.204;8.844;2023-04-06T03:47:47;6.70;;;4.45;;
72569;SDS011;60594;50.204;8.844;2023-04-06T03:50:14;7.60;;;3.97;;
72569;SDS011;60594;50.204;8.844;2023-04-06T03:52:41;6.57;;;4.95;;
72569;SDS011;60594;50.204;8.844;2023-04-06T03:55:07;8.48;;;5.00;;
72569;SDS011;60594;50.204;8.844;2023-04-06T03:57:36;6.80;;;5.03;;
72569;SDS011;60594;50.204;8.844;2023-04-06T04:00:03;8.20;;;4.82;;
72569;SDS011;60594;50.204;8.844;2023-04-06T04:02:39;6.82;;;4.97;;
72569;SDS011;60594;50.204;8.844;2023-04-06T04:05:05;6.88;;;4.25;;
72569;SDS011;60594;50.204;8.844;2023-04-06T04:07:32;6.47;;;4.25;;
72569;SDS011;60594;50.204;8.844;2023-04-06T04:10:00;9.27;;;4.72;;
72569;SDS011;60594;50.204;8.844;2023-04-06T04:12:26;9.77;;;4.50;;
72569;SDS011;60594;50.204;8.844;2023-04-06T04:14:53;6.82;;;4.53;;
72569;SDS011;60594;50.204;8.844;2023-04-06T04:17:19;7.03;;;3.75;;
72569;SDS011;60594;50.204;8.844;2023-04-06T04:19:46;10.32;;;5.05;;
72569;SDS011;60594;50.204;8.844;2023-04-06T04:22:15;7.85;;;4.70;;
72569;SDS011;60594;50.204;8.844;2023-04-06T04:24:42;7.22;;;4.70;;
72569;SDS011;60594;50.204;8.844;2023-04-06T04:27:09;8.68;;;4.90;;
72569;SDS011;60594;50.204;8.844;2023-04-06T04:29:36;8.65;;;5.13;;
72569;SDS011;60594;50.204;8.844;2023-04-06T04:32:07;9.43;;;5.07;;
72569;SDS011;60594;50.204;8.844;2023-04-06T04:34:33;8.05;;;4.22;;
72569;SDS011;60594;50.204;8.844;2023-04-06T04:37:01;8.00;;;4.75;;
72569;SDS011;60594;50.204;8.844;2023-04-06T04:39:41;8.82;;;4.68;;
72569;SDS011;60594;50.204;8.844;2023-04-06T04:42:08;9.40;;;5.47;;
72569;SDS011;60594;50.204;8.844;2023-04-06T04:44:37;8.73;;;4.95;;
72569;SDS011;60594;50.204;8.844;2023-04-06T04:47:04;7.35;;;4.35;;
72569;SDS011;60594;50.204;8.844;2023-04-06T04:49:40;7.45;;;4.82;;
72569;SDS011;60594;50.204;8.844;2023-04-06T04:52:07;8.05;;;4.80;;
72569;SDS011;60594;50.204;8.844;2023-04-06T04:54:44;9.10;;;5.35;;
72569;SDS011;60594;50.204;8.844;2023-04-06T04:57:17;6.97;;;4.93;;
72569;SDS011;60594;50.204;8.844;2023-04-06T04:59:44;6.05;;;3.83;;
72569;SDS011;60594;50.204;8.844;2023-04-06T05:02:17;8.23;;;4.25;;
72569;SDS011;60594;50.204;8.844;2023-04-06T05:04:55;9.43;;;4.70;;
72569;SDS011;60594;50.204;8.844;2023-04-06T05:07:25;7.43;;;4.10;;
72569;SDS011;60594;50.204;8.844;2023-04-06T05:09:53;9.00;;;5.30;;
72569;SDS011;60594;50.204;8.844;2023-04-06T05:12:23;10.27;;;4.95;;
72569;SDS011;60594;50.204;8.844;2023-04-06T05:14:59;9.55;;;5.00;;
72569;SDS011;60594;50.204;8.844;2023-04-06T05:17:27;8.18;;;5.38;;
72569;SDS011;60594;50.204;8.844;2023-04-06T05:19:54;9.25;;;4.25;;
72569;SDS011;60594;50.204;8.844;2023-04-06T05:22:24;8.82;;;5.13;;
72569;SDS011;60594;50.204;8.844;2023-04-06T05:25:01;13.27;;;4.88;;
72569;SDS011;60594;50.204;8.844;2023-04-06T05:27:29;7.15;;;4.15;;
72569;SDS011;60594;50.204;8.844;2023-04-06T05:29:55;8.35;;;3.95;;
72569;SDS011;60594;50.204;8.844;2023-04-06T05:32:23;7.57;;;4.95;;
72569;SDS011;60594;50.204;8.844;2023-04-06T05:34:51;8.38;;;5.53;;
72569;SDS011;60594;50.204;8.844;2023-04-06T05:37:18;8.20;;;4.93;;
72569;SDS011;60594;50.204;8.844;2023-04-06T05:39:44;8.80;;;4.60;;
72569;SDS011;60594;50.204;8.844;2023-04-06T05:42:11;8.20;;;5.18;;
72569;SDS011;60594;50.204;8.844;2023-04-06T05:44:48;9.65;;;5.35;;
72569;SDS011;60594;50.204;8.844;2023-04-06T05:47:16;7.82;;;5.03;;
72569;SDS011;60594;50.204;8.844;2023-04-06T05:49:46;8.27;;;5.25;;
72569;SDS011;60594;50.204;8.844;2023-04-06T05:52:21;12.00;;;6.53;;
72569;SDS011;60594;50.204;8.844;2023-04-06T05:54:48;13.18;;;9.00;;
72569;SDS011;60594;50.204;8.844;2023-04-06T05:57:15;14.25;;;9.02;;
72569;SDS011;60594;50.204;8.844;2023-04-06T05:59:45;12.82;;;10.00;;
72569;SDS011;60594;50.204;8.844;2023-04-06T06:02:13;12.25;;;8.10;;
72569;SDS011;60594;50.204;8.844;2023-04-06T06:04:43;13.82;;;7.53;;
72569;SDS011;60594;50.204;8.844;2023-04-06T06:07:10;10.75;;;6.25;;
72569;SDS011;60594;50.204;8.844;2023-04-06T06:09:42;9.07;;;6.40;;
72569;SDS011;60594;50.204;8.844;2023-04-06T06:12:25;9.65;;;6.15;;
72569;SDS011;60594;50.204;8.844;2023-04-06T06:14:52;8.95;;;4.68;;
72569;SDS011;60594;50.204;8.844;2023-04-06T06:17:20;12.80;;;8.13;;
72569;SDS011;60594;50.204;8.844;2023-04-06T06:19:47;12.65;;;8.13;;
72569;SDS011;60594;50.204;8.844;2023-04-06T06:22:15;13.48;;;9.27;;
72569;SDS011;60594;50.204;8.844;2023-04-06T06:24:45;18.80;;;12.52;;
72569;SDS011;60594;50.204;8.844;2023-04-06T06:27:12;18.63;;;11.68;;
72569;SDS011;60594;50.204;8.844;2023-04-06T06:29:39;40.03;;;22.17;;
72569;SDS011;60594;50.204;8.844;2023-04-06T06:32:06;55.00;;;23.85;;
72569;SDS011;60594;50.204;8.844;2023-04-06T06:34:32;33.22;;;15.65;;
72569;SDS011;60594;50.204;8.844;2023-04-06T06:37:03;13.32;;;8.25;;
72569;SDS011;60594;50.204;8.844;2023-04-06T06:39:30;9.20;;;5.72;;
72569;SDS011;60594;50.204;8.844;2023-04-06T06:41:57;8.63;;;5.05;;
72569;SDS011;60594;50.204;8.844;2023-04-06T06:44:43;9.55;;;5.32;;
72569;SDS011;60594;50.204;8.844;2023-04-06T06:47:10;11.00;;;6.68;;
72569;SDS011;60594;50.204;8.844;2023-04-06T06:49:37;11.20;;;6.35;;
72569;SDS011;60594;50.204;8.844;2023-04-06T06:52:03;10.63;;;6.53;;
72569;SDS011;60594;50.204;8.844;2023-04-06T06:54:30;9.10;;;6.10;;
72569;SDS011;60594;50.204;8.844;2023-04-06T06:56:56;10.60;;;5.93;;
72569;SDS011;60594;50.204;8.844;2023-04-06T06:59:23;9.35;;;5.72;;
72569;SDS011;60594;50.204;8.844;2023-04-06T07:01:50;7.32;;;5.72;;
72569;SDS011;60594;50.204;8.844;2023-04-06T07:04:16;9.45;;;5.88;;
72569;SDS011;60594;50.204;8.844;2023-04-06T07:06:43;10.15;;;5.97;;
72569;SDS011;60594;50.204;8.844;2023-04-06T07:09:10;9.65;;;6.05;;
72569;SDS011;60594;50.204;8.844;2023-04-06T07:11:36;11.00;;;6.53;;
72569;SDS011;60594;50.204;8.844;2023-04-06T07:14:02;10.40;;;6.20;;
72569;SDS011;60594;50.204;8.844;2023-04-06T07:16:29;8.85;;;5.82;;
72569;SDS011;60594;50.204;8.844;2023-04-06T07:18:56;9.88;;;6.57;;
72569;SDS011;60594;50.204;8.844;2023-04-06T07:21:22;8.90;;;4.50;;
72569;SDS011;60594;50.204;8.844;2023-04-06T07:23:49;9.63;;;6.22;;
72569;SDS011;60594;50.204;8.844;2023-04-06T07:26:17;10.45;;;5.70;;
72569;SDS011;60594;50.204;8.844;2023-04-06T07:28:43;9.10;;;6.07;;
72569;SDS011;60594;50.204;8.844;2023-04-06T07:31:12;9.38;;;5.72;;
72569;SDS011;60594;50.204;8.844;2023-04-06T07:33:38;10.10;;;6.00;;
72569;SDS011;60594;50.204;8.844;2023-04-06T07:36:05;7.72;;;5.68;;
72569;SDS011;60594;50.204;8.844;2023-04-06T07:38:31;10.00;;;6.32;;
72569;SDS011;60594;50.204;8.844;2023-04-06T07:40:58;11.73;;;6.25;;
72569;SDS011;60594;50.204;8.844;2023-04-06T07:43:25;9.80;;;6.30;;
72569;SDS011;60594;50.204;8.844;2023-04-06T07:45:52;13.95;;;7.32;;
72569;SDS011;60594;50.204;8.844;2023-04-06T07:48:19;12.10;;;7.25;;
72569;SDS011;60594;50.204;8.844;2023-04-06T07:50:46;13.23;;;6.78;;
72569;SDS011;60594;50.204;8.844;2023-04-06T07:53:14;10.40;;;6.38;;
72569;SDS011;60594;50.204;8.844;2023-04-06T07:55:43;11.05;;;6.10;;
72569;SDS011;60594;50.204;8.844;2023-04-06T07:58:10;9.80;;;6.00;;
72569;SDS011;60594;50.204;8.844;2023-04-06T08:00:36;10.35;;;6.40;;
72569;SDS011;60594;50.204;8.844;2023-04-06T08:03:03;12.70;;;6.32;;
72569;SDS011;60594;50.204;8.844;2023-04-06T08:05:29;9.82;;;6.18;;
72569;SDS011;60594;50.204;8.844;2023-04-06T08:07:56;10.27;;;5.60;;
72569;SDS011;60594;50.204;8.844;2023-04-06T08:10:22;9.98;;;5.97;;
72569;SDS011;60594;50.204;8.844;2023-04-06T08:12:48;10.20;;;6.00;;
72569;SDS011;60594;50.204;8.844;2023-04-06T08:15:15;9.50;;;5.53;;
72569;SDS011;60594;50.204;8.844;2023-04-06T08:17:44;12.95;;;6.53;;
72569;SDS011;60594;50.204;8.844;2023-04-06T08:20:10;10.18;;;5.50;;
72569;SDS011;60594;50.204;8.844;2023-04-06T08:22:37;8.70;;;6.25;;
72569;SDS011;60594;50.204;8.844;2023-04-06T08:25:03;10.45;;;6.13;;
72569;SDS011;60594;50.204;8.844;2023-04-06T08:27:30;8.90;;;5.28;;
72569;SDS011;60594;50.204;8.844;2023-04-06T08:29:57;9.25;;;6.88;;
72569;SDS011;60594;50.204;8.844;2023-04-06T08:32:23;10.85;;;6.72;;
72569;SDS011;60594;50.204;8.844;2023-04-06T08:34:54;10.00;;;6.05;;
72569;SDS011;60594;50.204;8.844;2023-04-06T08:37:21;9.15;;;6.43;;
72569;SDS011;60594;50.204;8.844;2023-04-06T08:39:48;10.18;;;6.55;;
72569;SDS011;60594;50.204;8.844;2023-04-06T08:42:16;10.15;;;7.03;;
72569;SDS011;60594;50.204;8.844;2023-04-06T08:44:47;11.15;;;6.45;;
72569;SDS011;60594;50.204;8.844;2023-04-06T08:47:15;14.05;;;7.65;;
72569;SDS011;60594;50.204;8.844;2023-04-06T08:49:41;8.93;;;6.38;;
72569;SDS011;60594;50.204;8.844;2023-04-06T08:52:10;10.88;;;6.28;;
72569;SDS011;60594;50.204;8.844;2023-04-06T08:54:37;10.30;;;6.68;;
72569;SDS011;60594;50.204;8.844;2023-04-06T08:57:04;10.32;;;6.43;;
72569;SDS011;60594;50.204;8.844;2023-04-06T08:59:31;10.20;;;6.45;;
72569;SDS011;60594;50.204;8.844;2023-04-06T09:01:58;11.98;;;7.05;;
72569;SDS011;60594;50.204;8.844;2023-04-06T09:04:29;12.70;;;8.10;;
72569;SDS011;60594;50.204;8.844;2023-04-06T09:06:55;11.38;;;7.05;;
72569;SDS011;60594;50.204;8.844;2023-04-06T09:09:22;12.40;;;7.60;;
72569;SDS011;60594;50.204;8.844;2023-04-06T09:11:51;12.13;;;7.55;;
72569;SDS011;60594;50.204;8.844;2023-04-06T09:14:34;13.70;;;7.38;;
72569;SDS011;60594;50.204;8.844;2023-04-06T09:17:02;10.82;;;6.55;;
72569;SDS011;60594;50.204;8.844;2023-04-06T09:19:29;9.90;;;6.68;;
72569;SDS011;60594;50.204;8.844;2023-04-06T09:22:02;12.43;;;7.75;;
72569;SDS011;60594;50.204;8.844;2023-04-06T09:24:48;11.68;;;6.70;;
72569;SDS011;60594;50.204;8.844;2023-04-06T09:27:15;11.15;;;6.20;;
72569;SDS011;60594;50.204;8.844;2023-04-06T09:29:43;12.65;;;7.20;;
72569;SDS011;60594;50.204;8.844;2023-04-06T09:32:10;11.88;;;6.45;;
72569;SDS011;60594;50.204;8.844;2023-04-06T09:34:38;11.15;;;7.15;;
72569;SDS011;60594;50.204;8.844;2023-04-06T09:37:14;10.35;;;7.25;;
72569;SDS011;60594;50.204;8.844;2023-04-06T09:39:42;11.13;;;7.03;;
72569;SDS011;60594;50.204;8.844;2023-04-06T09:42:08;13.48;;;6.82;;
72569;SDS011;60594;50.204;8.844;2023-04-06T09:44:35;12.75;;;6.97;;
72569;SDS011;60594;50.204;8.844;2023-04-06T09:47:03;10.82;;;6.82;;
72569;SDS011;60594;50.204;8.844;2023-04-06T09:49:33;12.23;;;6.60;;
72569;SDS011;60594;50.204;8.844;2023-04-06T09:52:00;10.95;;;6.70;;
72569;SDS011;60594;50.204;8.844;2023-04-06T09:54:29;11.77;;;7.15;;
72569;SDS011;60594;50.204;8.844;2023-04-06T09:59:53;12.52;;;6.65;;
72569;SDS011;60594;50.204;8.844;2023-04-06T10:08:10;11.70;;;6.35;;
72569;SDS011;60594;50.204;8.844;2023-04-06T10:10:37;10.85;;;6.25;;
72569;SDS011;60594;50.204;8.844;2023-04-06T10:13:04;11.05;;;6.63;;
72569;SDS011;60594;50.204;8.844;2023-04-06T10:15:31;11.23;;;6.53;;
72569;SDS011;60594;50.204;8.844;2023-04-06T10:17:59;10.32;;;6.18;;
72569;SDS011;60594;50.204;8.844;2023-04-06T10:23:19;12.85;;;6.78;;
72569;SDS011;60594;50.204;8.844;2023-04-06T10:25:57;12.82;;;6.63;;
72569;SDS011;60594;50.204;8.844;2023-04-06T10:28:25;11.05;;;6.40;;
72569;SDS011;60594;50.204;8.844;2023-04-06T10:30:56;12.05;;;7.03;;
72569;SDS011;60594;50.204;8.844;2023-04-06T10:33:24;10.57;;;4.97;;
72569;SDS011;60594;50.204;8.844;2023-04-06T10:35:51;10.63;;;5.72;;
72569;SDS011;60594;50.204;8.844;2023-04-06T10:38:18;9.35;;;5.18;;
72569;SDS011;60594;50.204;8.844;2023-04-06T10:40:48;9.68;;;5.40;;
72569;SDS011;60594;50.204;8.844;2023-04-06T10:43:21;8.98;;;5.95;;
72569;SDS011;60594;50.204;8.844;2023-04-06T10:45:55;10.75;;;6.15;;
72569;SDS011;60594;50.204;8.844;2023-04-06T10:48:23;10.30;;;6.07;;
72569;SDS011;60594;50.204;8.844;2023-04-06T10:53:25;12.40;;;6.53;;
72569;SDS011;60594;50.204;8.844;2023-04-06T10:55:56;10.40;;;5.60;;
72569;SDS011;60594;50.204;8.844;2023-04-06T10:58:26;10.02;;;5.88;;
72569;SDS011;60594;50.204;8.844;2023-04-06T11:00:54;11.27;;;5.53;;
72569;SDS011;60594;50.204;8.844;2023-04-06T11:03:23;10.07;;;5.80;;
72569;SDS011;60594;50.204;8.844;2023-04-06T11:05:50;11.38;;;7.15;;
72569;SDS011;60594;50.204;8.844;2023-04-06T11:08:26;11.00;;;6.18;;
72569;SDS011;60594;50.204;8.844;2023-04-06T11:11:11;11.00;;;5.50;;
72569;SDS011;60594;50.204;8.844;2023-04-06T11:13:44;11.57;;;5.15;;
72569;SDS011;60594;50.204;8.844;2023-04-06T11:16:19;10.98;;;5.95;;
72569;SDS011;60594;50.204;8.844;2023-04-06T11:19:05;12.70;;;5.70;;
72569;SDS011;60594;50.204;8.844;2023-04-06T11:21:36;9.05;;;4.30;;
72569;SDS011;60594;50.204;8.844;2023-04-06T11:26:46;10.23;;;5.55;;
72569;SDS011;60594;50.204;8.844;2023-04-06T11:29:27;10.52;;;5.75;;
72569;SDS011;60594;50.204;8.844;2023-04-06T11:32:00;11.55;;;5.50;;
72569;SDS011;60594;50.204;8.844;2023-04-06T11:34:29;10.73;;;5.38;;
72569;SDS011;60594;50.204;8.844;2023-04-06T11:36:57;14.20;;;5.95;;
72569;SDS011;60594;50.204;8.844;2023-04-06T11:39:26;8.77;;;5.28;;
72569;SDS011;60594;50.204;8.844;2023-04-06T11:41:56;13.50;;;6.47;;
72569;SDS011;60594;50.204;8.844;2023-04-06T11:44:38;10.75;;;5.43;;
72569;SDS011;60594;50.204;8.844;2023-04-06T11:47:15;10.18;;;4.85;;
72569;SDS011;60594;50.204;8.844;2023-04-06T11:49:42;10.95;;;6.60;;
72569;SDS011;60594;50.204;8.844;2023-04-06T11:52:23;10.43;;;4.78;;
72569;SDS011;60594;50.204;8.844;2023-04-06T11:54:51;12.20;;;5.45;;
72569;SDS011;60594;50.204;8.844;2023-04-06T11:57:20;12.55;;;6.03;;
72569;SDS011;60594;50.204;8.844;2023-04-06T11:59:47;10.90;;;5.07;;
72569;SDS011;60594;50.204;8.844;2023-04-06T12:02:14;10.45;;;5.75;;
72569;SDS011;60594;50.204;8.844;2023-04-06T12:04:40;11.82;;;5.82;;
72569;SDS011;60594;50.204;8.844;2023-04-06T12:07:07;11.00;;;4.93;;
72569;SDS011;60594;50.204;8.844;2023-04-06T12:09:33;12.57;;;6.25;;
72569;SDS011;60594;50.204;8.844;2023-04-06T12:12:00;11.93;;;5.40;;
72569;SDS011;60594;50.204;8.844;2023-04-06T12:14:28;11.20;;;6.20;;
72569;SDS011;60594;50.204;8.844;2023-04-06T12:16:57;10.25;;;5.43;;
72569;SDS011;60594;50.204;8.844;2023-04-06T12:19:24;10.18;;;5.90;;
72569;SDS011;60594;50.204;8.844;2023-04-06T12:21:52;11.75;;;5.90;;
72569;SDS011;60594;50.204;8.844;2023-04-06T12:24:19;10.02;;;5.68;;
72569;SDS011;60594;50.204;8.844;2023-04-06T12:26:46;11.50;;;6.32;;
72569;SDS011;60594;50.204;8.844;2023-04-06T12:29:12;9.82;;;6.10;;
72569;SDS011;60594;50.204;8.844;2023-04-06T12:31:39;7.80;;;4.85;;
72569;SDS011;60594;50.204;8.844;2023-04-06T12:34:06;9.60;;;5.00;;
72569;SDS011;60594;50.204;8.844;2023-04-06T12:36:33;10.32;;;5.50;;
72569;SDS011;60594;50.204;8.844;2023-04-06T12:39:00;10.13;;;6.03;;
72569;SDS011;60594;50.204;8.844;2023-04-06T12:41:27;11.13;;;6.10;;
72569;SDS011;60594;50.204;8.844;2023-04-06T12:43:54;10.25;;;5.47;;
72569;SDS011;60594;50.204;8.844;2023-04-06T12:46:21;10.80;;;5.47;;
72569;SDS011;60594;50.204;8.844;2023-04-06T12:48:47;11.13;;;5.20;;
72569;SDS011;60594;50.204;8.844;2023-04-06T12:51:14;10.50;;;5.38;;
72569;SDS011;60594;50.204;8.844;2023-04-06T12:53:40;12.52;;;6.63;;
72569;SDS011;60594;50.204;8.844;2023-04-06T12:56:11;10.48;;;6.28;;
72569;SDS011;60594;50.204;8.844;2023-04-06T12:58:41;10.95;;;5.50;;
72569;SDS011;60594;50.204;8.844;2023-04-06T13:01:08;10.10;;;5.80;;
72569;SDS011;60594;50.204;8.844;2023-04-06T13:03:35;9.45;;;5.53;;
72569;SDS011;60594;50.204;8.844;2023-04-06T13:06:02;10.48;;;4.88;;
72569;SDS011;60594;50.204;8.844;2023-04-06T13:08:29;9.50;;;5.43;;
72569;SDS011;60594;50.204;8.844;2023-04-06T13:10:55;9.15;;;5.07;;
72569;SDS011;60594;50.204;8.844;2023-04-06T13:13:23;9.38;;;5.60;;
72569;SDS011;60594;50.204;8.844;2023-04-06T13:15:51;9.57;;;5.07;;
72569;SDS011;60594;50.204;8.844;2023-04-06T13:18:19;10.73;;;5.10;;
72569;SDS011;60594;50.204;8.844;2023-04-06T13:20:46;9.35;;;6.00;;
72569;SDS011;60594;50.204;8.844;2023-04-06T13:23:13;10.20;;;5.78;;
72569;SDS011;60594;50.204;8.844;2023-04-06T13:25:41;10.13;;;5.25;;
72569;SDS011;60594;50.204;8.844;2023-04-06T13:28:08;9.60;;;5.68;;
72569;SDS011;60594;50.204;8.844;2023-04-06T13:30:36;10.82;;;5.80;;
72569;SDS011;60594;50.204;8.844;2023-04-06T13:33:02;9.25;;;5.25;;
72569;SDS011;60594;50.204;8.844;2023-04-06T13:35:29;11.32;;;5.68;;
72569;SDS011;60594;50.204;8.844;2023-04-06T13:37:55;10.27;;;5.47;;
72569;SDS011;60594;50.204;8.844;2023-04-06T13:40:22;11.32;;;4.97;;
72569;SDS011;60594;50.204;8.844;2023-04-06T13:42:48;9.25;;;5.00;;
72569;SDS011;60594;50.204;8.844;2023-04-06T13:45:15;10.68;;;5.50;;
72569;SDS011;60594;50.204;8.844;2023-04-06T13:47:41;9.82;;;5.35;;
72569;SDS011;60594;50.204;8.844;2023-04-06T13:50:08;11.85;;;5.60;;
72569;SDS011;60594;50.204;8.844;2023-04-06T13:52:35;9.52;;;4.80;;
72569;SDS011;60594;50.204;8.844;2023-04-06T13:55:02;8.73;;;4.88;;
72569;SDS011;60594;50.204;8.844;2023-04-06T13:57:28;10.35;;;5.82;;
72569;SDS011;60594;50.204;8.844;2023-04-06T13:59:56;7.93;;;5.13;;
72569;SDS011;60594;50.204;8.844;2023-04-06T14:02:22;9.30;;;5.32;;
72569;SDS011;60594;50.204;8.844;2023-04-06T14:04:53;8.85;;;5.68;;
72569;SDS011;60594;50.204;8.844;2023-04-06T14:07:20;13.13;;;6.55;;
72569;SDS011;60594;50.204;8.844;2023-04-06T14:09:47;8.98;;;5.57;;
72569;SDS011;60594;50.204;8.844;2023-04-06T14:12:13;8.45;;;4.90;;
72569;SDS011;60594;50.204;8.844;2023-04-06T14:14:40;8.70;;;4.60;;
72569;SDS011;60594;50.204;8.844;2023-04-06T14:17:06;8.27;;;4.55;;
72569;SDS011;60594;50.204;8.844;2023-04-06T14:19:33;7.88;;;4.75;;
72569;SDS011;60594;50.204;8.844;2023-04-06T14:22:00;10.13;;;4.90;;
72569;SDS011;60594;50.204;8.844;2023-04-06T14:24:27;9.18;;;4.82;;
72569;SDS011;60594;50.204;8.844;2023-04-06T14:26:53;11.25;;;5.65;;
72569;SDS011;60594;50.204;8.844;2023-04-06T14:29:20;10.35;;;5.80;;
72569;SDS011;60594;50.204;8.844;2023-04-06T14:31:47;9.45;;;5.22;;
72569;SDS011;60594;50.204;8.844;2023-04-06T14:34:14;10.45;;;6.15;;
72569;SDS011;60594;50.204;8.844;2023-04-06T14:36:42;9.23;;;4.97;;
72569;SDS011;60594;50.204;8.844;2023-04-06T14:39:09;10.02;;;4.97;;
72569;SDS011;60594;50.204;8.844;2023-04-06T14:41:36;9.85;;;5.07;;
72569;SDS011;60594;50.204;8.844;2023-04-06T14:44:02;8.52;;;4.30;;
72569;SDS011;60594;50.204;8.844;2023-04-06T14:46:29;9.15;;;5.25;;
72569;SDS011;60594;50.204;8.844;2023-04-06T14:48:56;9.88;;;5.40;;
72569;SDS011;60594;50.204;8.844;2023-04-06T14:51:25;8.98;;;5.28;;
72569;SDS011;60594;50.204;8.844;2023-04-06T14:53:53;8.80;;;4.90;;
72569;SDS011;60594;50.204;8.844;2023-04-06T14:56:21;10.10;;;4.82;;
72569;SDS011;60594;50.204;8.844;2023-04-06T14:58:49;9.30;;;5.47;;
72569;SDS011;60594;50.204;8.844;2023-04-06T15:01:17;9.27;;;5.85;;
72569;SDS011;60594;50.204;8.844;2023-04-06T15:03:45;9.18;;;5.57;;
72569;SDS011;60594;50.204;8.844;2023-04-06T15:06:13;8.07;;;5.35;;
72569;SDS011;60594;50.204;8.844;2023-04-06T15:08:42;8.60;;;5.10;;